x

South Hatteras - 225 South Of Cape Hatteras (41002) Wave Buoy

10:50 - Mon 20th Feb 2017 All times are EST. -5 hours from GMT.

  • Sig Wave height 4.3ft
  • Swell Direction
  • Peak Period 6s
  • Average Period 5s
  • Wind
    18mph, 22mph gusts
  • Sea Temp 71°f
  • Air Temp 69°f
  • Sea Pressure 1020.1mb
  • South Hatteras - 225 South Of Cape Hatteras
  • South Hatteras - 225 South Of Cape Hatteras

More Historic Weather Station data

Upgrade to MSW Pro to gain access to the past 30 days of data for over 8000 Wavebouys and Weather Stations around the globe.

Join Pro

Comparision Forecast

View Surf forecast
   
lun. 02/20 10:50 4.5ft 6s 5s 18 22 mph 1020.1mb 71f 69f
9:50 4.5ft 6s 5s 18 22 mph 1020.3mb 71f 69f
8:50 4.5ft 6s 5s 16 20 mph 1020.3mb 71f 69f
7:50 4.5ft 7s 5s 20 22 mph 1020.1mb 71f 70f
6:50 4.5ft 7s 5s 20 22 mph 1019.8mb 71f 70f
5:50 4.5ft 7s 5s 20 22 mph 1019.4mb 71f 70f
4:50 5ft 6s 5s 18 20 mph 1018.9mb 71f 70f
3:50 5ft 7s 5s 18 20 mph 1018.5mb 71f 70f
2:50 5ft 7s 5s 18 20 mph 1018.1mb 71f 70f
1:50 6ft 6s 5s 18 20 mph 1018.2mb 71f 70f
12:50 5ft 7s 5s 20 22 mph 1018.3mb 71f 70f
11:50 6ft 6s 5s 18 20 mph 1019.6mb 71f 70f
10:50 6ft 6s 5s 18 20 mph 1019.6mb 71f 70f
9:50 5.5ft 6s 5s 20 22 mph 1019.4mb 71f 70f
8:50 5.5ft 7s 5s 22 27 mph 1019.1mb 71f 71f
7:50 5.5ft 7s 5s 22 25 mph 1018.3mb 71f 71f
6:50 5ft 7s 5s 20 22 mph 1017.7mb 71f 71f
5:50 5.5ft 7s 5s 20 25 mph 1016.8mb 71f 71f
4:50 5.5ft 7s 5s 22 27 mph 1015.9mb 72f 71f
3:50 5.5ft 7s 5s 22 25 mph 1015.3mb 72f 70f
2:50 5.5ft 7s 5s 22 27 mph 1014.6mb 72f 70f
1:50 6ft 7s 5s 22 25 mph 1014.8mb 71f 70f
12:50 5.5ft 7s 5s 20 22 mph 1015.4mb 71f 70f
dim. 02/19 11:50 6ft 7s 5s 18 22 mph 1015.6mb 71f 70f
10:50 5ft 7s 5s 18 25 mph 1015.4mb 71f 70f
9:50 5ft 7s 5s 18 22 mph 1015.3mb 71f 69f
8:50 5ft 7s 5s 18 27 mph 1015mb 71f 69f
7:50 4.5ft 6s 5s 18 22 mph 1014.7mb 71f 69f
6:50 4.5ft 6s 5s 20 25 mph 1014mb 71f 69f
5:50 4ft 6s 5s 18 22 mph 1013.3mb 71f 69f
4:50 4.5ft 6s 5s 20 25 mph 1012.5mb 71f 68f
3:50 4.5ft 6s 5s 11 13 mph 1012.1mb 71f 67f
2:50 4.5ft 6s 5s 18 22 mph 1011.2mb 71f 66f
1:50 5ft 6s 5s 16 20 mph 1011.8mb 71f 67f
12:50 5ft 6s 5s 16 20 mph 1013.3mb 71f 66f
11:50 5ft 6s 5s 9 13 mph 1014.7mb 71f 68f
10:50 5ft 6s 5s 16 18 mph 1014.9mb 71f 69f
9:50 5ft 6s 5s 18 20 mph 1014.8mb 71f 68f
8:50 5ft 6s 5s 16 18 mph 1015.7mb 71f 69f
7:50 5ft 6s 5s 20 25 mph 1014.7mb 71f 69f
6:50 5ft 6s 5s 20 22 mph 1014.9mb 71f 69f
5:50 5ft 6s 5s 25 29 mph 1013.7mb 71f 69f
4:50 4.5ft 6s 5s 20 25 mph 1014mb 71f 71f
3:50 4.5ft 6s 5s 20 25 mph 1014.2mb 71f 70f
2:50 4.5ft 5s 5s 20 22 mph 1015mb 71f 70f
1:50 4.5ft 6s 5s 18 22 mph 1015.8mb 71f 70f
12:50 4ft 6s 5s 20 22 mph 1016.4mb 71f 70f
sam. 02/18 11:50 4.5ft 6s 5s 18 22 mph 1016.7mb 71f 70f
10:50 4.5ft 6s 5s 20 25 mph 1017mb 71f 70f
9:50 4.5ft 6s 5s 22 27 mph 1017.2mb 71f 70f
8:50 4.5ft 6s 5s 20 25 mph 1017.3mb 71f 70f
7:50 5ft 6s 5s 20 25 mph 1017.3mb 71f 70f
6:50 4.5ft 5s 5s 20 25 mph 1017.7mb 71f 70f
5:50 4ft 6s 5s 20 25 mph 1017.3mb 71f 70f
4:50 4ft 6s 5s 20 22 mph 1017.2mb 71f 70f
3:50 4.5ft 6s 5s 16 18 mph 1016.9mb 71f 71f
2:50 4.5ft 6s 5s 16 18 mph 1016.3mb 71f 71f
1:50 4.5ft 6s 5s 16 18 mph 1016.5mb 71f 71f
12:50 4.5ft 6s 5s 13 18 mph 1017.1mb 71f 71f
11:50 4.5ft 6s 6s 11 16 mph 1017.7mb 71f 70f
10:50 5ft 6s 6s 13 18 mph 1018.5mb 71f 70f
9:50 5.5ft 7s 6s 16 18 mph 1018.3mb 71f 70f
8:50 5.5ft 6s 6s 13 16 mph 1018.2mb 71f 70f
7:50 5ft 6s 6s 16 18 mph 1018.1mb 71f 70f
6:50 6ft 6s 6s 16 18 mph 1017.2mb 71f 70f
5:50 6ft 7s 6s 13 18 mph 1016.9mb 71f 70f
4:50 6ft 6s 6s 16 20 mph 1016.6mb 71f 70f
3:50 6ft 6s 6s 16 18 mph 1016.3mb 71f 70f
2:50 6ft 9s 6s 18 22 mph 1016.4mb 71f 70f
1:50 6ft 6s 6s 20 25 mph 1016.5mb 71f 69f
12:50 6ft 6s 6s 20 22 mph 1016.5mb 71f 69f
ven. 02/17 11:50 6ft 6s 6s 20 25 mph 1016.2mb 71f 69f
10:50 6ft 6s 6s 22 25 mph 1016.1mb 71f 69f
9:50 6ft 6s 5s 22 27 mph 1016.5mb 71f 68f
8:50 6ft 6s 6s 22 27 mph 1016.2mb 71f 68f
7:50 5.5ft 6s 6s 20 25 mph 1016mb 71f 68f
6:50 6ft 10s 6s 20 27 mph 1016.3mb 71f 68f
5:50 6ft 10s 6s 18 22 mph 1015.7mb 71f 67f
4:50 6ft 10s 6s 7 13 mph 1016mb 71f 66f
3:50 6ft 7s 6s 7 9 mph 1015.8mb 71f 66f
2:50 6.5ft 9s 6s 9 11 mph 1016.3mb 71f 65f
1:50 7ft 7s 6s 11 16 mph 1016.7mb 71f 65f
12:50 8ft 8s 7s 13 18 mph 1017.2mb 71f 65f
11:50 8.5ft 8s 7s 13 16 mph 1017.7mb 71f 64f
10:50 9ft 8s 7s 13 20 mph 1018mb 71f 64f
9:50 9ft 8s 7s 13 20 mph 1017.7mb 71f 64f
8:50 11ft 8s 7s 18 25 mph 1017.1mb 71f 64f
7:50 10.5ft 8s 7s 22 27 mph 1016.4mb 71f 64f
6:50 11ft 8s 7s 22 29 mph 1015.9mb 71f 64f
5:50 11ft 8s 7s 25 31 mph 1015mb 71f 64f